Aérodrome :
LOGIN :

S'inscrire | Disclaimer

   EN    FR    IT 

 










Légende :    VFR   VFR Marginal   IFR   IFR Intensif   IFR Très Intensif
Visi : 
Plafond : 
>= 8 km
>= 3000ft
5 à 8 km
1000 à 3000 ft
1500m à 5 km
500 à 1000 ft
800 à 1500m
200 à 500 ft
< 800m
< 200 ft
Symboles :   Orages  Brouillard  Fortes neiges  Fortes précipitations  Vent > 20 kt
SIGMETs :   Divers  Orages  Givrage  Turbulence  Onde Orograph.  Cendres Volcan.







- Altitude de l'aérodrome : 401 ft
- Code IATA : LEQ
- Voir les cartes d'approche


EGHC - Land's End

DERNIER METAR :
  • 161320Z 19017KT 0050 FG VV/// 11/11 Q1019

METARs EXPIRÉS :
  • 161250Z 19019KT 0100 FG VV/// 11/11 Q1020
  • 161220Z 19017KT 0100 FG VV/// 11/11 Q1020
  • 161150Z 19018KT 3000 1000E FEW000 BKN004 11/11 Q1020
  • 161120Z 19017KT 7000 1500E FEW002 BKN006 11/11 Q1020
  • 161050Z 19019KT 7000 2000E -RA FEW002 BKN006 11/11 Q1020

TAF TAF EGHC
Valide du 16 à 12h jusqu'au 16 à 18h UTC


161102Z 1612/1618 18018KT 6000 FEW002 BKN005
TEMPO 1612/1618 19021G31KT 0300 FG DZ BKN000
Pas de NOTAMs connus pour ce terrain.



MET'MAP, la Météo Aéronautique d'un coup d'oeil ! - Copyright ORBIFLY Décembre 2007 - Disclaimer

ORBIFLY MET'MAP TEAM :

Programmation & Développement : Alexandra Zaïnal
Conception & Développement : Baudouin d'Aumeries
Co-Programmation & Développement : Marc-Olivier Méhu
Soutien technique & logistique : Manuel Goepfert

Contact : metmap@orbifly.com




SOURCES & CREDITS :

   NOAA